createdAt,value
2023-02-11T00:02:33.426Z,24.38
2023-02-11T00:05:37.959Z,29.55
2023-02-11T00:08:42.173Z,27.45
2023-02-11T00:11:46.756Z,25.05
2023-02-11T00:14:51.205Z,26.23
2023-02-11T00:17:55.506Z,28.35
2023-02-11T00:20:59.809Z,29.23
2023-02-11T00:24:04.597Z,26.73
2023-02-11T00:27:10.491Z,26.67
2023-02-11T00:30:15.468Z,28.92
2023-02-11T00:33:19.816Z,28.88
2023-02-11T00:36:27.957Z,28.60
2023-02-11T00:39:32.406Z,27.85
2023-02-11T00:42:37.375Z,28.20
2023-02-11T00:45:41.818Z,27.60
2023-02-11T00:48:46.430Z,28.45
2023-02-11T00:51:50.856Z,27.60
2023-02-11T00:54:55.255Z,28.50
2023-02-11T00:58:00.147Z,28.25
2023-02-11T01:01:05.416Z,29.38
2023-02-11T01:04:10.106Z,28.63
2023-02-11T01:07:14.632Z,28.05
2023-02-11T01:10:19.363Z,31.05
2023-02-11T01:13:25.318Z,28.85
2023-02-11T01:16:30.002Z,29.40
2023-02-11T01:19:34.142Z,27.73
2023-02-11T01:22:39.601Z,28.58
2023-02-11T01:25:44.136Z,30.80
2023-02-11T01:28:48.566Z,30.15
2023-02-11T01:31:52.991Z,32.55
2023-02-11T01:34:57.355Z,32.75
2023-02-11T01:38:01.741Z,34.05
2023-02-11T01:41:11.089Z,36.00
2023-02-11T01:44:40.138Z,33.03
2023-02-11T01:47:44.611Z,33.60
2023-02-11T01:50:54.895Z,35.97
2023-02-11T01:54:19.371Z,32.38
2023-02-11T02:00:41.687Z,33.95
2023-02-11T02:03:48.896Z,33.17
2023-02-11T02:07:02.617Z,34.30
2023-02-11T02:10:17.122Z,32.80
2023-02-11T02:13:22.878Z,33.00
2023-02-11T02:16:35.055Z,29.77
2023-02-11T02:20:31.475Z,29.33
2023-02-11T02:23:50.567Z,29.33
2023-02-11T02:27:04.214Z,27.67
2023-02-11T02:31:18.363Z,27.10
2023-02-11T02:34:35.378Z,24.95
2023-02-11T02:38:07.990Z,24.23
2023-02-11T02:41:17.668Z,25.13
2023-02-11T02:44:22.939Z,24.38
2023-02-11T02:47:27.504Z,24.63
2023-02-11T02:50:36.635Z,24.00
2023-02-11T02:54:06.936Z,24.15
2023-02-11T02:57:47.668Z,22.00
2023-02-11T03:01:38.710Z,21.17
2023-02-11T03:04:53.748Z,22.23
2023-02-11T03:08:27.426Z,19.98
2023-02-11T03:11:32.514Z,18.70
2023-02-11T03:14:38.961Z,20.70
2023-02-11T03:17:47.761Z,18.75
2023-02-11T03:20:54.383Z,21.30
2023-02-11T03:24:05.871Z,19.85
2023-02-11T03:27:25.902Z,18.08
2023-02-11T03:30:52.917Z,18.25
2023-02-11T03:34:23.813Z,16.95
2023-02-11T03:37:39.828Z,18.90
2023-02-11T03:40:45.691Z,17.92
2023-02-11T03:43:55.990Z,20.10
2023-02-11T03:47:02.812Z,21.05
2023-02-11T03:50:10.292Z,19.00
2023-02-11T03:53:15.725Z,20.48
2023-02-11T03:56:26.957Z,20.58
2023-02-11T03:59:31.645Z,18.65
2023-02-11T04:02:38.332Z,21.83
2023-02-11T04:05:42.652Z,21.88
2023-02-11T04:08:46.961Z,20.75
2023-02-11T04:11:51.287Z,21.70
2023-02-11T04:14:55.695Z,24.77
2023-02-11T04:18:00.087Z,23.10
2023-02-11T04:21:05.140Z,25.67
2023-02-11T04:24:09.765Z,25.52
2023-02-11T04:27:14.385Z,25.67
2023-02-11T04:30:19.157Z,26.90
2023-02-11T04:33:24.258Z,25.73
2023-02-11T04:36:28.643Z,27.67
2023-02-11T04:39:33.163Z,26.02
2023-02-11T04:42:37.530Z,27.23
2023-02-11T04:45:41.926Z,26.33
2023-02-11T04:48:46.509Z,28.83
2023-02-11T04:51:50.881Z,25.15
2023-02-11T04:54:55.054Z,28.58
2023-02-11T04:57:59.285Z,29.27
2023-02-11T05:01:13.270Z,27.17
2023-02-11T05:04:18.074Z,28.23
2023-02-11T05:07:22.397Z,27.98
2023-02-11T05:10:27.197Z,27.88
2023-02-11T05:13:32.476Z,28.75
2023-02-11T05:16:37.061Z,29.33
2023-02-11T05:19:42.915Z,26.95
2023-02-11T05:22:47.682Z,31.58
2023-02-11T05:25:52.011Z,26.10
2023-02-11T05:28:57.063Z,26.20
2023-02-11T05:32:01.643Z,27.90
2023-02-11T05:35:06.326Z,26.45
2023-02-11T05:38:10.635Z,25.17
2023-02-11T05:41:15.159Z,23.75
2023-02-11T05:44:19.600Z,26.90
2023-02-11T05:47:24.199Z,24.90
2023-02-11T05:50:28.533Z,23.50
2023-02-11T05:53:32.734Z,24.48
2023-02-11T05:56:37.081Z,24.33
2023-02-11T05:59:41.586Z,25.20
2023-02-11T06:02:46.157Z,22.98
2023-02-11T06:05:50.963Z,23.60
2023-02-11T06:08:56.529Z,23.90
2023-02-11T06:12:00.758Z,22.50
2023-02-11T06:15:07.010Z,22.13
2023-02-11T06:18:11.256Z,21.80
2023-02-11T06:21:16.048Z,26.42
2023-02-11T06:24:38.319Z,22.73
2023-02-11T06:27:45.437Z,21.73
2023-02-11T06:30:49.930Z,21.60
2023-02-11T06:33:55.083Z,20.10
2023-02-11T06:36:59.309Z,20.63
2023-02-11T06:40:04.139Z,21.90
2023-02-11T06:43:08.803Z,19.08
2023-02-11T06:46:13.432Z,19.85
2023-02-11T06:49:17.851Z,20.45
2023-02-11T06:52:22.022Z,18.77
2023-02-11T06:55:27.212Z,20.13
2023-02-11T06:58:32.491Z,19.85
2023-02-11T07:01:36.967Z,19.75
2023-02-11T07:04:41.627Z,19.05
2023-02-11T07:07:46.513Z,20.15
2023-02-11T07:10:51.098Z,20.67
2023-02-11T07:14:04.965Z,20.40
2023-02-11T07:17:09.309Z,19.33
2023-02-11T07:20:14.963Z,21.52
2023-02-11T07:23:19.413Z,19.33
2023-02-11T07:26:25.836Z,18.33
2023-02-11T07:29:30.105Z,18.75
2023-02-11T07:32:34.463Z,18.30
2023-02-11T07:35:41.031Z,18.77
2023-02-11T07:38:47.505Z,19.65
2023-02-11T07:41:52.013Z,20.05
2023-02-11T07:44:56.297Z,18.55
2023-02-11T07:48:00.703Z,18.98
2023-02-11T07:51:10.122Z,18.75
2023-02-11T07:54:14.683Z,19.25
2023-02-11T07:57:19.255Z,19.23
2023-02-11T08:00:23.889Z,19.92
2023-02-11T08:03:28.344Z,20.00
2023-02-11T08:06:35.434Z,20.60
2023-02-11T08:09:39.689Z,20.38
2023-02-11T08:12:44.133Z,20.48
2023-02-11T08:15:48.921Z,19.63
2023-02-11T08:18:57.601Z,20.17
2023-02-11T08:22:02.813Z,20.00
2023-02-11T08:25:07.563Z,18.42
2023-02-11T08:28:11.876Z,19.45
2023-02-11T08:31:25.114Z,19.77
2023-02-11T08:34:29.860Z,20.33
2023-02-11T08:37:34.596Z,17.60
2023-02-11T08:40:39.077Z,22.38
2023-02-11T08:43:45.926Z,22.25
2023-02-11T08:46:51.420Z,18.95
2023-02-11T08:49:55.805Z,19.38
2023-02-11T08:53:00.761Z,20.60
2023-02-11T08:56:06.226Z,20.42
2023-02-11T08:59:15.010Z,18.10
2023-02-11T09:02:19.485Z,19.17
2023-02-11T09:05:24.114Z,16.58
2023-02-11T09:08:28.449Z,18.50
2023-02-11T09:11:35.562Z,17.00
2023-02-11T09:14:41.358Z,17.05
2023-02-11T09:17:45.884Z,15.38
2023-02-11T09:20:50.734Z,15.10
2023-02-11T09:23:55.819Z,17.25
2023-02-11T09:27:00.133Z,16.25
2023-02-11T09:30:05.758Z,15.10
2023-02-11T09:33:10.509Z,14.27
2023-02-11T09:36:22.615Z,15.27
2023-02-11T09:39:27.484Z,13.75
2023-02-11T09:43:08.874Z,14.27
2023-02-11T09:46:20.037Z,13.88
2023-02-11T09:49:48.917Z,15.38
2023-02-11T09:53:27.519Z,12.48
2023-02-11T09:56:32.118Z,11.93
2023-02-11T09:59:36.523Z,13.20
2023-02-11T10:03:25.876Z,12.77
2023-02-11T10:06:30.745Z,10.80
2023-02-11T10:09:53.069Z,11.50
2023-02-11T10:13:51.441Z,11.48
2023-02-11T10:17:14.606Z,11.07
2023-02-11T10:20:31.941Z,12.43
2023-02-11T10:23:45.618Z,10.55
2023-02-11T10:26:52.243Z,11.50
2023-02-11T10:30:16.585Z,10.85
2023-02-11T10:34:00.481Z,11.80
2023-02-11T10:37:04.992Z,10.65
2023-02-11T10:40:22.862Z,11.48
2023-02-11T10:43:30.766Z,11.38
2023-02-11T10:46:40.317Z,13.43
2023-02-11T10:49:46.973Z,11.05
2023-02-11T10:52:51.747Z,12.43
2023-02-11T10:55:59.694Z,10.02
2023-02-11T10:59:19.766Z,12.15
2023-02-11T11:02:34.331Z,9.10
2023-02-11T11:05:50.472Z,8.55
2023-02-11T11:08:55.227Z,11.35
2023-02-11T11:11:59.833Z,8.07
2023-02-11T11:15:10.191Z,8.02
2023-02-11T11:18:22.642Z,9.35
2023-02-11T11:21:44.228Z,8.93
2023-02-11T11:24:54.318Z,8.32
2023-02-11T11:28:03.292Z,8.32
2023-02-11T11:31:31.775Z,7.68
2023-02-11T11:34:52.654Z,8.98
2023-02-11T11:38:05.399Z,8.70
2023-02-11T11:41:59.873Z,9.20
2023-02-11T11:45:25.828Z,8.15
2023-02-11T11:48:40.184Z,8.25
2023-02-11T11:51:58.645Z,7.90
2023-02-11T11:55:26.638Z,7.80
2023-02-11T11:58:33.091Z,7.22
2023-02-11T12:02:52.056Z,8.68
2023-02-11T12:06:20.256Z,11.20
2023-02-11T12:09:45.728Z,10.45
2023-02-11T12:12:56.191Z,9.25
2023-02-11T12:16:13.955Z,8.25
2023-02-11T12:20:01.391Z,7.00
2023-02-11T12:23:48.123Z,8.23
2023-02-11T12:27:10.578Z,7.75
2023-02-11T12:30:33.526Z,8.80
2023-02-11T12:34:15.035Z,7.63
2023-02-11T12:37:44.356Z,8.30
2023-02-11T12:41:14.630Z,6.63
2023-02-11T12:44:52.282Z,7.55
2023-02-11T12:48:34.099Z,5.85
2023-02-11T12:51:47.139Z,7.13
2023-02-11T12:55:25.850Z,7.43
2023-02-11T12:58:44.552Z,5.80
2023-02-11T13:01:51.910Z,5.95
2023-02-11T13:05:05.520Z,5.20
2023-02-11T13:08:30.697Z,6.45
2023-02-11T13:11:51.853Z,6.28
2023-02-11T13:15:03.779Z,4.85
2023-02-11T13:18:32.406Z,5.90
2023-02-11T13:22:19.289Z,5.80
2023-02-11T13:25:57.183Z,5.15
2023-02-11T13:29:53.477Z,7.13
2023-02-11T13:32:58.032Z,6.90
2023-02-11T13:36:04.541Z,7.03
2023-02-11T13:39:21.277Z,6.72
2023-02-11T13:42:27.136Z,5.50
2023-02-11T13:45:40.342Z,7.40
2023-02-11T13:48:53.770Z,7.03
2023-02-11T13:52:02.786Z,6.75
2023-02-11T13:55:23.324Z,7.53
2023-02-11T13:58:27.911Z,6.50
2023-02-11T14:02:06.041Z,7.05
2023-02-11T14:05:45.371Z,7.80
2023-02-11T14:09:14.228Z,7.40
2023-02-11T14:12:34.264Z,8.93
2023-02-11T14:15:40.424Z,6.07
2023-02-11T14:18:45.081Z,10.30
2023-02-11T14:21:50.137Z,9.57
2023-02-11T14:25:00.924Z,8.40
2023-02-11T14:28:25.896Z,8.15
2023-02-11T14:32:06.136Z,9.07
2023-02-11T14:35:47.899Z,13.10
2023-02-11T14:39:25.330Z,9.80
2023-02-11T14:42:31.354Z,13.45
2023-02-11T14:45:38.013Z,7.68
2023-02-11T14:48:52.299Z,9.80
2023-02-11T14:52:06.197Z,10.88
2023-02-11T14:55:38.123Z,11.18
2023-02-11T14:58:51.999Z,11.60
2023-02-11T15:01:56.225Z,11.93
2023-02-11T15:05:26.142Z,12.77
2023-02-11T15:08:34.569Z,11.80
2023-02-11T15:11:43.228Z,12.13
2023-02-11T15:14:55.264Z,8.52
2023-02-11T15:18:03.430Z,8.80
2023-02-11T15:21:08.332Z,8.35
2023-02-11T15:24:31.768Z,8.73
2023-02-11T15:27:57.883Z,27.80
2023-02-11T15:31:16.203Z,12.13
2023-02-11T15:34:20.979Z,9.77
2023-02-11T15:37:32.119Z,9.35
2023-02-11T15:40:37.893Z,9.05
2023-02-11T15:43:53.025Z,9.80
2023-02-11T15:46:57.515Z,10.45
2023-02-11T15:50:02.444Z,11.90
2023-02-11T15:53:21.982Z,12.88
2023-02-11T15:56:43.583Z,9.55
2023-02-11T15:59:53.044Z,9.60
2023-02-11T16:02:57.517Z,8.95
2023-02-11T16:06:26.442Z,7.55
2023-02-11T16:09:35.118Z,9.48
2023-02-11T16:12:39.677Z,10.23
2023-02-11T16:15:57.259Z,10.15
2023-02-11T16:19:06.237Z,10.00
2023-02-11T16:22:20.382Z,19.55
2023-02-11T16:25:25.068Z,15.20
2023-02-11T16:28:29.763Z,11.98
2023-02-11T16:31:37.773Z,13.88
2023-02-11T16:34:42.692Z,14.15
2023-02-11T16:37:47.225Z,12.60
2023-02-11T16:40:51.875Z,14.00
2023-02-11T16:43:59.296Z,16.75
2023-02-11T16:47:06.855Z,15.30
2023-02-11T16:50:22.244Z,15.02
2023-02-11T16:53:26.670Z,18.65
2023-02-11T16:56:31.103Z,24.15
2023-02-11T16:59:35.115Z,15.00
2023-02-11T17:02:39.918Z,12.52
2023-02-11T17:05:58.320Z,14.20
2023-02-11T17:09:03.880Z,15.38
2023-02-11T17:12:08.459Z,12.07
2023-02-11T17:15:12.568Z,9.98
2023-02-11T17:18:16.946Z,9.90
2023-02-11T17:21:21.536Z,9.38
2023-02-11T17:24:26.235Z,8.60
2023-02-11T17:27:30.400Z,7.97
2023-02-11T17:30:35.398Z,7.55
2023-02-11T17:33:39.804Z,7.80
2023-02-11T17:36:44.803Z,7.95
2023-02-11T17:39:50.976Z,7.75
2023-02-11T17:42:55.427Z,7.55
2023-02-11T17:45:59.794Z,8.00
2023-02-11T17:49:04.994Z,11.15
2023-02-11T17:52:09.730Z,10.27
2023-02-11T17:55:14.686Z,10.30
2023-02-11T17:58:19.044Z,11.13
2023-02-11T18:01:26.645Z,11.40
2023-02-11T18:04:31.726Z,12.93
2023-02-11T18:07:36.260Z,12.73
2023-02-11T18:10:43.527Z,13.70
2023-02-11T18:13:54.273Z,14.13
2023-02-11T18:16:58.977Z,11.82
2023-02-11T18:20:04.885Z,13.55
2023-02-11T18:23:10.648Z,17.17
2023-02-11T18:26:17.917Z,16.20
2023-02-11T18:29:22.344Z,10.73
2023-02-11T18:32:27.119Z,9.40
2023-02-11T18:35:31.517Z,9.07
2023-02-11T18:38:36.167Z,10.05
2023-02-11T18:41:42.285Z,12.73
2023-02-11T18:44:46.317Z,15.35
2023-02-11T18:47:50.505Z,14.15
2023-02-11T18:50:55.766Z,18.20
2023-02-11T18:54:02.713Z,15.10
2023-02-11T18:57:07.652Z,17.45
2023-02-11T19:00:12.983Z,11.55
2023-02-11T19:03:17.821Z,10.30
2023-02-11T19:06:26.123Z,13.10
2023-02-11T19:09:30.896Z,10.77
2023-02-11T19:12:35.262Z,9.45
2023-02-11T19:15:44.856Z,18.10
2023-02-11T19:18:49.477Z,25.17
2023-02-11T19:21:55.430Z,18.88
2023-02-11T19:24:59.801Z,21.17
2023-02-11T19:28:04.183Z,21.98
2023-02-11T19:31:09.508Z,21.35
2023-02-11T19:34:16.774Z,38.28
2023-02-11T19:37:21.361Z,29.77
2023-02-11T19:40:25.954Z,24.88
2023-02-11T19:43:31.119Z,18.98
2023-02-11T19:46:40.661Z,22.83
2023-02-11T19:49:45.438Z,16.17
2023-02-11T19:52:49.598Z,14.02
2023-02-11T19:55:54.106Z,12.27
2023-02-11T19:59:01.995Z,12.93
2023-02-11T20:02:06.661Z,13.43
2023-02-11T20:05:11.139Z,15.55
2023-02-11T20:08:17.124Z,12.07
2023-02-11T20:11:22.673Z,12.15
2023-02-11T20:14:28.166Z,13.30
2023-02-11T20:17:32.700Z,11.85
2023-02-11T20:20:38.726Z,10.70
2023-02-11T20:23:44.867Z,11.52
2023-02-11T20:26:51.688Z,11.63
2023-02-11T20:29:56.102Z,12.65
2023-02-11T20:33:00.647Z,12.70
2023-02-11T20:36:13.856Z,12.27
2023-02-11T20:39:19.290Z,8.67
2023-02-11T20:42:24.107Z,11.68
2023-02-11T20:45:28.553Z,19.80
2023-02-11T20:48:34.087Z,37.92
2023-02-11T20:51:38.597Z,12.98
2023-02-11T20:54:43.072Z,15.18
2023-02-11T20:57:47.855Z,14.40
2023-02-11T21:00:52.569Z,14.10
2023-02-11T21:04:02.415Z,14.38
2023-02-11T21:07:06.992Z,16.58
2023-02-11T21:10:12.184Z,19.27
2023-02-11T21:13:16.858Z,13.32
2023-02-11T21:16:21.540Z,14.43
2023-02-11T21:19:26.431Z,15.32
2023-02-11T21:22:31.400Z,18.15
2023-02-11T21:25:35.943Z,18.30
2023-02-11T21:28:41.241Z,23.17
2023-02-11T21:31:46.262Z,20.80
2023-02-11T21:34:50.880Z,20.65
2023-02-11T21:37:55.184Z,19.30
2023-02-11T21:41:05.250Z,17.77
2023-02-11T21:44:09.797Z,17.17
2023-02-11T21:47:14.351Z,19.70
2023-02-11T21:50:19.211Z,19.63
2023-02-11T21:53:23.616Z,18.60
2023-02-11T21:56:30.067Z,18.70
2023-02-11T21:59:34.326Z,19.55
2023-02-11T22:02:39.193Z,20.33
2023-02-11T22:05:43.952Z,23.13
2023-02-11T22:08:50.066Z,25.73
2023-02-11T22:11:54.722Z,25.77
2023-02-11T22:14:58.831Z,23.83
2023-02-11T22:18:03.242Z,30.30
2023-02-11T22:21:12.622Z,26.20
2023-02-11T22:24:17.054Z,24.58
2023-02-11T22:27:21.921Z,26.50
2023-02-11T22:30:26.322Z,21.20
2023-02-11T22:33:31.140Z,21.52
2023-02-11T22:36:40.056Z,18.85
2023-02-11T22:39:44.950Z,17.60
2023-02-11T22:42:49.245Z,19.08
2023-02-11T22:45:56.460Z,19.15
2023-02-11T22:49:01.207Z,14.45
2023-02-11T22:52:05.455Z,13.60
2023-02-11T22:55:09.880Z,11.05
2023-02-11T22:58:14.192Z,8.40
2023-02-11T23:01:19.519Z,7.32
2023-02-11T23:04:23.886Z,7.10
2023-02-11T23:07:28.257Z,7.80
2023-02-11T23:10:36.306Z,10.90
2023-02-11T23:13:43.237Z,16.45
2023-02-11T23:16:51.163Z,14.40
2023-02-11T23:19:56.041Z,16.00
2023-02-11T23:23:00.499Z,19.13
2023-02-11T23:26:08.563Z,25.02
2023-02-11T23:29:13.334Z,24.42
2023-02-11T23:32:18.997Z,22.90
2023-02-11T23:35:24.402Z,25.35
2023-02-11T23:38:29.050Z,24.98
2023-02-11T23:41:33.589Z,25.48
2023-02-11T23:44:38.198Z,25.30
2023-02-11T23:47:42.568Z,26.58
2023-02-11T23:50:47.177Z,25.60
2023-02-11T23:53:52.888Z,22.10
2023-02-11T23:56:57.661Z,19.35
